sensor_id;sensor_type;location;lat;lon;timestamp;P1;durP1;ratioP1;P2;durP2;ratioP2
17965;SDS011;9108;53.204;10.424;2023-07-29T00:00:23;10.85;;;7.72;;
17965;SDS011;9108;53.204;10.424;2023-07-29T00:02:53;10.75;;;7.63;;
17965;SDS011;9108;53.204;10.424;2023-07-29T00:05:20;12.65;;;7.65;;
17965;SDS011;9108;53.204;10.424;2023-07-29T00:07:47;11.20;;;7.78;;
17965;SDS011;9108;53.204;10.424;2023-07-29T00:10:14;12.60;;;7.93;;
17965;SDS011;9108;53.204;10.424;2023-07-29T00:12:41;10.52;;;7.85;;
17965;SDS011;9108;53.204;10.424;2023-07-29T00:15:08;10.90;;;7.80;;
17965;SDS011;9108;53.204;10.424;2023-07-29T00:17:37;9.27;;;7.07;;
17965;SDS011;9108;53.204;10.424;2023-07-29T00:20:05;10.70;;;7.80;;
17965;SDS011;9108;53.204;10.424;2023-07-29T00:22:33;9.73;;;7.38;;
17965;SDS011;9108;53.204;10.424;2023-07-29T00:25:02;11.45;;;7.70;;
17965;SDS011;9108;53.204;10.424;2023-07-29T00:27:29;11.82;;;7.55;;
17965;SDS011;9108;53.204;10.424;2023-07-29T00:29:59;12.80;;;7.95;;
17965;SDS011;9108;53.204;10.424;2023-07-29T00:32:26;12.20;;;7.97;;
17965;SDS011;9108;53.204;10.424;2023-07-29T00:34:57;12.55;;;8.52;;
17965;SDS011;9108;53.204;10.424;2023-07-29T00:37:25;11.15;;;8.15;;
17965;SDS011;9108;53.204;10.424;2023-07-29T00:39:53;12.63;;;7.93;;
17965;SDS011;9108;53.204;10.424;2023-07-29T00:42:20;14.17;;;8.03;;
17965;SDS011;9108;53.204;10.424;2023-07-29T00:44:47;11.20;;;8.18;;
17965;SDS011;9108;53.204;10.424;2023-07-29T00:47:15;13.32;;;8.65;;
17965;SDS011;9108;53.204;10.424;2023-07-29T00:49:42;12.48;;;8.52;;
17965;SDS011;9108;53.204;10.424;2023-07-29T00:52:11;15.87;;;9.13;;
17965;SDS011;9108;53.204;10.424;2023-07-29T00:54:39;14.35;;;9.02;;
17965;SDS011;9108;53.204;10.424;2023-07-29T00:57:09;14.07;;;8.97;;
17965;SDS011;9108;53.204;10.424;2023-07-29T00:59:40;14.65;;;8.95;;
17965;SDS011;9108;53.204;10.424;2023-07-29T01:02:07;15.95;;;9.10;;
17965;SDS011;9108;53.204;10.424;2023-07-29T01:04:36;13.30;;;9.23;;
17965;SDS011;9108;53.204;10.424;2023-07-29T01:07:06;12.85;;;9.07;;
17965;SDS011;9108;53.204;10.424;2023-07-29T01:09:41;13.93;;;9.10;;
17965;SDS011;9108;53.204;10.424;2023-07-29T01:12:14;13.70;;;8.10;;
17965;SDS011;9108;53.204;10.424;2023-07-29T01:14:51;12.55;;;8.65;;
17965;SDS011;9108;53.204;10.424;2023-07-29T01:17:23;12.90;;;8.90;;
17965;SDS011;9108;53.204;10.424;2023-07-29T01:19:55;14.85;;;9.77;;
17965;SDS011;9108;53.204;10.424;2023-07-29T01:22:24;14.65;;;9.27;;
17965;SDS011;9108;53.204;10.424;2023-07-29T01:24:53;15.60;;;10.18;;
17965;SDS011;9108;53.204;10.424;2023-07-29T01:27:29;15.98;;;9.98;;
17965;SDS011;9108;53.204;10.424;2023-07-29T01:29:57;17.90;;;10.70;;
17965;SDS011;9108;53.204;10.424;2023-07-29T01:32:25;17.10;;;11.10;;
17965;SDS011;9108;53.204;10.424;2023-07-29T01:34:56;18.08;;;10.80;;
17965;SDS011;9108;53.204;10.424;2023-07-29T01:37:26;17.77;;;11.45;;
17965;SDS011;9108;53.204;10.424;2023-07-29T01:39:58;15.48;;;10.77;;
17965;SDS011;9108;53.204;10.424;2023-07-29T01:42:26;15.30;;;10.80;;
17965;SDS011;9108;53.204;10.424;2023-07-29T01:44:53;17.30;;;11.18;;
17965;SDS011;9108;53.204;10.424;2023-07-29T01:47:21;18.08;;;11.07;;
17965;SDS011;9108;53.204;10.424;2023-07-29T01:49:48;16.37;;;10.70;;
17965;SDS011;9108;53.204;10.424;2023-07-29T01:52:17;17.13;;;10.95;;
17965;SDS011;9108;53.204;10.424;2023-07-29T01:54:44;17.13;;;11.10;;
17965;SDS011;9108;53.204;10.424;2023-07-29T01:57:30;17.02;;;11.20;;
17965;SDS011;9108;53.204;10.424;2023-07-29T01:59:57;17.83;;;12.13;;
17965;SDS011;9108;53.204;10.424;2023-07-29T02:02:24;18.63;;;12.00;;
17965;SDS011;9108;53.204;10.424;2023-07-29T02:04:51;18.52;;;11.68;;
17965;SDS011;9108;53.204;10.424;2023-07-29T02:07:18;18.67;;;11.80;;
17965;SDS011;9108;53.204;10.424;2023-07-29T02:09:45;21.38;;;12.05;;
17965;SDS011;9108;53.204;10.424;2023-07-29T02:12:12;20.70;;;12.00;;
17965;SDS011;9108;53.204;10.424;2023-07-29T02:14:41;20.05;;;11.80;;
17965;SDS011;9108;53.204;10.424;2023-07-29T02:17:10;18.88;;;11.90;;
17965;SDS011;9108;53.204;10.424;2023-07-29T02:19:37;24.08;;;12.50;;
17965;SDS011;9108;53.204;10.424;2023-07-29T02:22:05;20.10;;;12.15;;
17965;SDS011;9108;53.204;10.424;2023-07-29T02:24:32;18.15;;;12.02;;
17965;SDS011;9108;53.204;10.424;2023-07-29T02:26:59;23.55;;;12.65;;
17965;SDS011;9108;53.204;10.424;2023-07-29T02:29:26;18.52;;;12.27;;
17965;SDS011;9108;53.204;10.424;2023-07-29T02:31:55;20.65;;;12.55;;
17965;SDS011;9108;53.204;10.424;2023-07-29T02:34:23;23.42;;;13.57;;
17965;SDS011;9108;53.204;10.424;2023-07-29T02:36:50;24.92;;;14.45;;
17965;SDS011;9108;53.204;10.424;2023-07-29T02:39:17;22.80;;;13.45;;
17965;SDS011;9108;53.204;10.424;2023-07-29T02:41:48;24.37;;;14.43;;
17965;SDS011;9108;53.204;10.424;2023-07-29T02:44:15;25.35;;;15.40;;
17965;SDS011;9108;53.204;10.424;2023-07-29T02:46:44;25.88;;;16.02;;
17965;SDS011;9108;53.204;10.424;2023-07-29T02:49:13;24.45;;;15.00;;
17965;SDS011;9108;53.204;10.424;2023-07-29T02:51:40;24.95;;;14.48;;
17965;SDS011;9108;53.204;10.424;2023-07-29T02:54:07;21.55;;;13.27;;
17965;SDS011;9108;53.204;10.424;2023-07-29T02:56:34;19.70;;;12.57;;
17965;SDS011;9108;53.204;10.424;2023-07-29T02:59:01;22.10;;;13.43;;
17965;SDS011;9108;53.204;10.424;2023-07-29T03:01:29;22.15;;;13.07;;
17965;SDS011;9108;53.204;10.424;2023-07-29T03:03:58;19.77;;;12.30;;
17965;SDS011;9108;53.204;10.424;2023-07-29T03:06:27;23.35;;;13.60;;
17965;SDS011;9108;53.204;10.424;2023-07-29T03:08:54;26.30;;;15.07;;
17965;SDS011;9108;53.204;10.424;2023-07-29T03:11:21;27.10;;;15.35;;
17965;SDS011;9108;53.204;10.424;2023-07-29T03:13:48;25.70;;;14.77;;
17965;SDS011;9108;53.204;10.424;2023-07-29T03:16:16;23.85;;;14.32;;
17965;SDS011;9108;53.204;10.424;2023-07-29T03:18:44;24.98;;;14.88;;
17965;SDS011;9108;53.204;10.424;2023-07-29T03:21:11;24.73;;;14.73;;
17965;SDS011;9108;53.204;10.424;2023-07-29T03:23:39;24.15;;;14.55;;
17965;SDS011;9108;53.204;10.424;2023-07-29T03:26:07;28.38;;;15.60;;
17965;SDS011;9108;53.204;10.424;2023-07-29T03:28:36;29.03;;;16.73;;
17965;SDS011;9108;53.204;10.424;2023-07-29T03:31:03;28.23;;;17.23;;
17965;SDS011;9108;53.204;10.424;2023-07-29T03:33:30;33.55;;;18.27;;
17965;SDS011;9108;53.204;10.424;2023-07-29T03:35:57;30.27;;;17.90;;
17965;SDS011;9108;53.204;10.424;2023-07-29T03:38:36;30.25;;;17.92;;
17965;SDS011;9108;53.204;10.424;2023-07-29T03:41:06;33.10;;;19.02;;
17965;SDS011;9108;53.204;10.424;2023-07-29T03:43:37;33.15;;;19.15;;
17965;SDS011;9108;53.204;10.424;2023-07-29T03:46:04;32.80;;;18.67;;
17965;SDS011;9108;53.204;10.424;2023-07-29T03:48:41;30.25;;;18.10;;
17965;SDS011;9108;53.204;10.424;2023-07-29T03:51:09;29.73;;;18.13;;
17965;SDS011;9108;53.204;10.424;2023-07-29T03:53:36;29.42;;;17.83;;
17965;SDS011;9108;53.204;10.424;2023-07-29T03:56:03;28.60;;;17.10;;
17965;SDS011;9108;53.204;10.424;2023-07-29T03:58:32;28.80;;;17.13;;
17965;SDS011;9108;53.204;10.424;2023-07-29T04:01:01;28.65;;;16.33;;
17965;SDS011;9108;53.204;10.424;2023-07-29T04:03:29;26.95;;;16.77;;
17965;SDS011;9108;53.204;10.424;2023-07-29T04:05:56;31.35;;;17.98;;
17965;SDS011;9108;53.204;10.424;2023-07-29T04:08:26;32.10;;;18.48;;
17965;SDS011;9108;53.204;10.424;2023-07-29T04:10:53;30.85;;;17.83;;
17965;SDS011;9108;53.204;10.424;2023-07-29T04:13:21;33.87;;;17.83;;
17965;SDS011;9108;53.204;10.424;2023-07-29T04:15:49;28.90;;;16.80;;
17965;SDS011;9108;53.204;10.424;2023-07-29T04:18:19;26.90;;;16.33;;
17965;SDS011;9108;53.204;10.424;2023-07-29T04:20:46;26.98;;;16.02;;
17965;SDS011;9108;53.204;10.424;2023-07-29T04:23:16;29.00;;;15.68;;
17965;SDS011;9108;53.204;10.424;2023-07-29T04:25:44;24.52;;;15.23;;
17965;SDS011;9108;53.204;10.424;2023-07-29T04:28:14;27.77;;;16.15;;
17965;SDS011;9108;53.204;10.424;2023-07-29T04:30:44;31.03;;;16.30;;
17965;SDS011;9108;53.204;10.424;2023-07-29T04:33:12;27.50;;;15.88;;
17965;SDS011;9108;53.204;10.424;2023-07-29T04:35:46;26.70;;;15.88;;
17965;SDS011;9108;53.204;10.424;2023-07-29T04:38:14;25.33;;;15.82;;
17965;SDS011;9108;53.204;10.424;2023-07-29T04:40:41;25.48;;;15.30;;
17965;SDS011;9108;53.204;10.424;2023-07-29T04:43:08;24.15;;;14.73;;
17965;SDS011;9108;53.204;10.424;2023-07-29T04:45:41;23.33;;;14.25;;
17965;SDS011;9108;53.204;10.424;2023-07-29T04:48:09;20.35;;;13.13;;
17965;SDS011;9108;53.204;10.424;2023-07-29T04:50:37;18.95;;;11.68;;
17965;SDS011;9108;53.204;10.424;2023-07-29T04:53:07;18.80;;;11.55;;
17965;SDS011;9108;53.204;10.424;2023-07-29T04:55:46;16.35;;;10.73;;
17965;SDS011;9108;53.204;10.424;2023-07-29T04:58:20;15.67;;;10.00;;
17965;SDS011;9108;53.204;10.424;2023-07-29T05:00:47;16.33;;;10.10;;
17965;SDS011;9108;53.204;10.424;2023-07-29T05:03:14;15.73;;;9.65;;
17965;SDS011;9108;53.204;10.424;2023-07-29T05:05:43;15.18;;;9.13;;
17965;SDS011;9108;53.204;10.424;2023-07-29T05:08:12;12.45;;;8.40;;
17965;SDS011;9108;53.204;10.424;2023-07-29T05:10:39;14.77;;;9.02;;
17965;SDS011;9108;53.204;10.424;2023-07-29T05:13:07;13.35;;;8.35;;
17965;SDS011;9108;53.204;10.424;2023-07-29T05:15:35;14.75;;;8.70;;
17965;SDS011;9108;53.204;10.424;2023-07-29T05:18:10;13.85;;;8.82;;
17965;SDS011;9108;53.204;10.424;2023-07-29T05:20:39;12.60;;;7.82;;
17965;SDS011;9108;53.204;10.424;2023-07-29T05:23:08;13.82;;;8.20;;
17965;SDS011;9108;53.204;10.424;2023-07-29T05:25:35;14.15;;;7.65;;
17965;SDS011;9108;53.204;10.424;2023-07-29T05:28:06;12.80;;;7.88;;
17965;SDS011;9108;53.204;10.424;2023-07-29T05:30:33;11.00;;;7.90;;
17965;SDS011;9108;53.204;10.424;2023-07-29T05:33:02;12.75;;;7.38;;
17965;SDS011;9108;53.204;10.424;2023-07-29T05:35:29;10.60;;;6.97;;
17965;SDS011;9108;53.204;10.424;2023-07-29T05:37:57;10.82;;;6.38;;
17965;SDS011;9108;53.204;10.424;2023-07-29T05:40:25;12.03;;;6.80;;
17965;SDS011;9108;53.204;10.424;2023-07-29T05:42:52;9.38;;;6.50;;
17965;SDS011;9108;53.204;10.424;2023-07-29T05:45:19;11.30;;;6.70;;
17965;SDS011;9108;53.204;10.424;2023-07-29T05:47:56;9.95;;;6.50;;
17965;SDS011;9108;53.204;10.424;2023-07-29T05:50:23;11.33;;;6.70;;
17965;SDS011;9108;53.204;10.424;2023-07-29T05:52:50;9.43;;;6.18;;
17965;SDS011;9108;53.204;10.424;2023-07-29T05:55:17;9.13;;;6.40;;
17965;SDS011;9108;53.204;10.424;2023-07-29T05:57:47;11.73;;;6.20;;
17965;SDS011;9108;53.204;10.424;2023-07-29T06:00:14;10.73;;;5.93;;
17965;SDS011;9108;53.204;10.424;2023-07-29T06:02:43;8.82;;;5.68;;
17965;SDS011;9108;53.204;10.424;2023-07-29T06:05:10;8.43;;;5.63;;
17965;SDS011;9108;53.204;10.424;2023-07-29T06:07:37;8.60;;;5.88;;
17965;SDS011;9108;53.204;10.424;2023-07-29T06:10:09;10.25;;;5.38;;
17965;SDS011;9108;53.204;10.424;2023-07-29T06:12:43;8.40;;;5.20;;
17965;SDS011;9108;53.204;10.424;2023-07-29T06:15:24;9.25;;;5.00;;
17965;SDS011;9108;53.204;10.424;2023-07-29T06:17:51;10.63;;;5.68;;
17965;SDS011;9108;53.204;10.424;2023-07-29T06:20:18;9.70;;;5.15;;
17965;SDS011;9108;53.204;10.424;2023-07-29T06:22:48;10.18;;;5.45;;
17965;SDS011;9108;53.204;10.424;2023-07-29T06:25:17;8.90;;;5.60;;
17965;SDS011;9108;53.204;10.424;2023-07-29T06:27:49;9.07;;;5.00;;
17965;SDS011;9108;53.204;10.424;2023-07-29T06:30:17;8.63;;;5.00;;
17965;SDS011;9108;53.204;10.424;2023-07-29T06:32:44;9.52;;;5.20;;
17965;SDS011;9108;53.204;10.424;2023-07-29T06:35:20;8.57;;;4.68;;
17965;SDS011;9108;53.204;10.424;2023-07-29T06:37:48;7.15;;;4.80;;
17965;SDS011;9108;53.204;10.424;2023-07-29T06:40:15;7.63;;;4.53;;
17965;SDS011;9108;53.204;10.424;2023-07-29T06:42:43;5.75;;;3.63;;
17965;SDS011;9108;53.204;10.424;2023-07-29T06:45:10;6.22;;;3.50;;
17965;SDS011;9108;53.204;10.424;2023-07-29T06:47:38;6.10;;;3.80;;
17965;SDS011;9108;53.204;10.424;2023-07-29T06:50:06;6.10;;;3.80;;
17965;SDS011;9108;53.204;10.424;2023-07-29T06:52:33;7.03;;;3.83;;
17965;SDS011;9108;53.204;10.424;2023-07-29T06:55:02;7.35;;;3.90;;
17965;SDS011;9108;53.204;10.424;2023-07-29T06:57:29;4.97;;;3.83;;
17965;SDS011;9108;53.204;10.424;2023-07-29T06:59:56;7.13;;;3.17;;
17965;SDS011;9108;53.204;10.424;2023-07-29T07:02:23;4.13;;;2.97;;
17965;SDS011;9108;53.204;10.424;2023-07-29T07:04:55;6.72;;;2.90;;
17965;SDS011;9108;53.204;10.424;2023-07-29T07:07:22;5.28;;;2.45;;
17965;SDS011;9108;53.204;10.424;2023-07-29T07:09:49;6.25;;;2.95;;
17965;SDS011;9108;53.204;10.424;2023-07-29T07:12:18;5.10;;;2.85;;
17965;SDS011;9108;53.204;10.424;2023-07-29T07:14:45;7.07;;;3.33;;
17965;SDS011;9108;53.204;10.424;2023-07-29T07:17:15;5.28;;;2.70;;
17965;SDS011;9108;53.204;10.424;2023-07-29T07:19:43;4.10;;;2.97;;
17965;SDS011;9108;53.204;10.424;2023-07-29T07:22:12;5.13;;;2.90;;
17965;SDS011;9108;53.204;10.424;2023-07-29T07:24:39;5.45;;;2.88;;
17965;SDS011;9108;53.204;10.424;2023-07-29T07:27:08;4.53;;;2.70;;
17965;SDS011;9108;53.204;10.424;2023-07-29T07:29:35;5.50;;;2.80;;
17965;SDS011;9108;53.204;10.424;2023-07-29T07:32:04;4.50;;;3.00;;
17965;SDS011;9108;53.204;10.424;2023-07-29T07:34:37;6.13;;;2.72;;
17965;SDS011;9108;53.204;10.424;2023-07-29T07:37:05;5.28;;;2.80;;
17965;SDS011;9108;53.204;10.424;2023-07-29T07:39:35;4.32;;;2.90;;
17965;SDS011;9108;53.204;10.424;2023-07-29T07:42:12;4.82;;;2.95;;
17965;SDS011;9108;53.204;10.424;2023-07-29T07:44:42;4.80;;;3.05;;
17965;SDS011;9108;53.204;10.424;2023-07-29T07:47:09;5.80;;;3.00;;
17965;SDS011;9108;53.204;10.424;2023-07-29T07:49:36;5.85;;;3.10;;
17965;SDS011;9108;53.204;10.424;2023-07-29T07:52:03;5.00;;;3.20;;
17965;SDS011;9108;53.204;10.424;2023-07-29T07:54:31;4.38;;;3.10;;
17965;SDS011;9108;53.204;10.424;2023-07-29T07:56:59;6.47;;;3.08;;
17965;SDS011;9108;53.204;10.424;2023-07-29T07:59:26;4.95;;;3.47;;
17965;SDS011;9108;53.204;10.424;2023-07-29T08:01:53;5.15;;;3.70;;
17965;SDS011;9108;53.204;10.424;2023-07-29T08:04:21;3.97;;;3.42;;
17965;SDS011;9108;53.204;10.424;2023-07-29T08:06:50;5.82;;;3.60;;
17965;SDS011;9108;53.204;10.424;2023-07-29T08:09:17;5.07;;;3.30;;
17965;SDS011;9108;53.204;10.424;2023-07-29T08:11:44;5.47;;;3.60;;
17965;SDS011;9108;53.204;10.424;2023-07-29T08:14:13;5.00;;;3.42;;
17965;SDS011;9108;53.204;10.424;2023-07-29T08:16:40;7.03;;;3.65;;
17965;SDS011;9108;53.204;10.424;2023-07-29T08:19:07;6.20;;;3.40;;
17965;SDS011;9108;53.204;10.424;2023-07-29T08:21:34;6.15;;;3.35;;
17965;SDS011;9108;53.204;10.424;2023-07-29T08:24:02;5.00;;;3.35;;
17965;SDS011;9108;53.204;10.424;2023-07-29T08:26:29;4.70;;;3.60;;
17965;SDS011;9108;53.204;10.424;2023-07-29T08:28:56;6.93;;;4.00;;
17965;SDS011;9108;53.204;10.424;2023-07-29T08:31:27;6.35;;;4.03;;
17965;SDS011;9108;53.204;10.424;2023-07-29T08:33:55;5.67;;;4.17;;
17965;SDS011;9108;53.204;10.424;2023-07-29T08:36:34;5.97;;;4.65;;
17965;SDS011;9108;53.204;10.424;2023-07-29T08:39:01;8.73;;;5.80;;
17965;SDS011;9108;53.204;10.424;2023-07-29T08:41:29;7.47;;;5.70;;
17965;SDS011;9108;53.204;10.424;2023-07-29T08:44:02;9.47;;;6.23;;
17965;SDS011;9108;53.204;10.424;2023-07-29T08:46:34;10.87;;;6.67;;
17965;SDS011;9108;53.204;10.424;2023-07-29T08:49:05;10.18;;;6.72;;
17965;SDS011;9108;53.204;10.424;2023-07-29T08:51:33;9.23;;;6.60;;
17965;SDS011;9108;53.204;10.424;2023-07-29T08:54:00;10.50;;;7.03;;
17965;SDS011;9108;53.204;10.424;2023-07-29T08:56:28;10.50;;;7.30;;
17965;SDS011;9108;53.204;10.424;2023-07-29T08:58:55;10.77;;;7.50;;
17965;SDS011;9108;53.204;10.424;2023-07-29T09:01:22;10.03;;;7.60;;
17965;SDS011;9108;53.204;10.424;2023-07-29T09:03:51;12.25;;;7.72;;
17965;SDS011;9108;53.204;10.424;2023-07-29T09:06:18;10.90;;;7.30;;
17965;SDS011;9108;53.204;10.424;2023-07-29T09:08:46;9.73;;;7.22;;
17965;SDS011;9108;53.204;10.424;2023-07-29T09:11:18;11.82;;;8.20;;
17965;SDS011;9108;53.204;10.424;2023-07-29T09:13:46;11.55;;;8.18;;
17965;SDS011;9108;53.204;10.424;2023-07-29T09:16:13;11.77;;;8.70;;
17965;SDS011;9108;53.204;10.424;2023-07-29T09:18:40;13.10;;;9.30;;
17965;SDS011;9108;53.204;10.424;2023-07-29T09:21:11;13.70;;;9.43;;
17965;SDS011;9108;53.204;10.424;2023-07-29T09:23:40;16.48;;;9.98;;
17965;SDS011;9108;53.204;10.424;2023-07-29T09:26:10;15.25;;;9.93;;
17965;SDS011;9108;53.204;10.424;2023-07-29T09:28:38;16.40;;;10.15;;
17965;SDS011;9108;53.204;10.424;2023-07-29T09:31:08;18.05;;;10.63;;
17965;SDS011;9108;53.204;10.424;2023-07-29T09:33:45;21.38;;;11.02;;
17965;SDS011;9108;53.204;10.424;2023-07-29T09:36:20;24.27;;;11.93;;
17965;SDS011;9108;53.204;10.424;2023-07-29T09:38:48;21.60;;;12.10;;
17965;SDS011;9108;53.204;10.424;2023-07-29T09:41:18;23.70;;;12.40;;
17965;SDS011;9108;53.204;10.424;2023-07-29T09:43:45;23.00;;;13.07;;
17965;SDS011;9108;53.204;10.424;2023-07-29T09:46:15;21.30;;;12.15;;
17965;SDS011;9108;53.204;10.424;2023-07-29T09:48:43;13.87;;;8.97;;
17965;SDS011;9108;53.204;10.424;2023-07-29T09:51:12;14.27;;;8.10;;
17965;SDS011;9108;53.204;10.424;2023-07-29T09:53:44;12.18;;;6.88;;
17965;SDS011;9108;53.204;10.424;2023-07-29T09:56:15;10.15;;;6.18;;
17965;SDS011;9108;53.204;10.424;2023-07-29T09:58:43;8.48;;;6.00;;
17965;SDS011;9108;53.204;10.424;2023-07-29T10:01:14;8.60;;;5.70;;
17965;SDS011;9108;53.204;10.424;2023-07-29T10:03:41;9.82;;;5.30;;
17965;SDS011;9108;53.204;10.424;2023-07-29T10:06:11;6.75;;;4.50;;
17965;SDS011;9108;53.204;10.424;2023-07-29T10:08:39;6.82;;;4.30;;
17965;SDS011;9108;53.204;10.424;2023-07-29T10:11:08;6.90;;;4.40;;
17965;SDS011;9108;53.204;10.424;2023-07-29T10:13:38;6.90;;;4.32;;
17965;SDS011;9108;53.204;10.424;2023-07-29T10:16:05;7.85;;;4.75;;
17965;SDS011;9108;53.204;10.424;2023-07-29T10:18:33;8.13;;;4.85;;
17965;SDS011;9108;53.204;10.424;2023-07-29T10:21:01;6.85;;;4.75;;
17965;SDS011;9108;53.204;10.424;2023-07-29T10:23:38;7.93;;;4.68;;
17965;SDS011;9108;53.204;10.424;2023-07-29T10:26:12;6.93;;;4.45;;
17965;SDS011;9108;53.204;10.424;2023-07-29T10:28:45;7.57;;;5.30;;
17965;SDS011;9108;53.204;10.424;2023-07-29T10:31:14;9.10;;;5.80;;
17965;SDS011;9108;53.204;10.424;2023-07-29T10:33:42;8.35;;;6.32;;
17965;SDS011;9108;53.204;10.424;2023-07-29T10:36:10;11.30;;;7.30;;
17965;SDS011;9108;53.204;10.424;2023-07-29T10:38:51;9.93;;;7.18;;
17965;SDS011;9108;53.204;10.424;2023-07-29T10:41:24;11.23;;;7.97;;
17965;SDS011;9108;53.204;10.424;2023-07-29T10:46:55;10.43;;;7.70;;
17965;SDS011;9108;53.204;10.424;2023-07-29T10:49:27;11.35;;;8.90;;
17965;SDS011;9108;53.204;10.424;2023-07-29T10:51:58;14.15;;;9.50;;
17965;SDS011;9108;53.204;10.424;2023-07-29T10:54:41;16.98;;;10.15;;
17965;SDS011;9108;53.204;10.424;2023-07-29T10:57:24;13.20;;;9.50;;
17965;SDS011;9108;53.204;10.424;2023-07-29T10:59:57;13.38;;;9.90;;
17965;SDS011;9108;53.204;10.424;2023-07-29T11:02:28;12.60;;;9.20;;
17965;SDS011;9108;53.204;10.424;2023-07-29T11:04:56;11.45;;;9.15;;
17965;SDS011;9108;53.204;10.424;2023-07-29T11:07:25;13.80;;;9.52;;
17965;SDS011;9108;53.204;10.424;2023-07-29T11:10:04;14.73;;;10.05;;
17965;SDS011;9108;53.204;10.424;2023-07-29T11:12:43;14.50;;;10.10;;
17965;SDS011;9108;53.204;10.424;2023-07-29T11:15:19;14.63;;;10.00;;
17965;SDS011;9108;53.204;10.424;2023-07-29T11:17:54;13.20;;;10.02;;
17965;SDS011;9108;53.204;10.424;2023-07-29T11:20:24;13.23;;;10.25;;
17965;SDS011;9108;53.204;10.424;2023-07-29T11:22:55;13.57;;;9.85;;
17965;SDS011;9108;53.204;10.424;2023-07-29T11:25:29;13.13;;;10.15;;
17965;SDS011;9108;53.204;10.424;2023-07-29T11:27:58;16.05;;;10.55;;
17965;SDS011;9108;53.204;10.424;2023-07-29T11:30:31;12.45;;;9.50;;
17965;SDS011;9108;53.204;10.424;2023-07-29T11:32:59;12.23;;;9.02;;
17965;SDS011;9108;53.204;10.424;2023-07-29T11:35:27;11.50;;;8.77;;
17965;SDS011;9108;53.204;10.424;2023-07-29T11:37:59;13.48;;;10.30;;
17965;SDS011;9108;53.204;10.424;2023-07-29T11:40:29;11.73;;;9.13;;
17965;SDS011;9108;53.204;10.424;2023-07-29T11:42:59;11.77;;;8.80;;
17965;SDS011;9108;53.204;10.424;2023-07-29T11:45:26;12.18;;;9.15;;
17965;SDS011;9108;53.204;10.424;2023-07-29T11:47:54;11.70;;;8.98;;
17965;SDS011;9108;53.204;10.424;2023-07-29T11:50:21;10.75;;;8.70;;
17965;SDS011;9108;53.204;10.424;2023-07-29T11:52:48;11.45;;;8.48;;
17965;SDS011;9108;53.204;10.424;2023-07-29T11:55:17;12.18;;;8.95;;
17965;SDS011;9108;53.204;10.424;2023-07-29T11:57:46;12.60;;;8.30;;
17965;SDS011;9108;53.204;10.424;2023-07-29T12:00:16;9.40;;;7.63;;
17965;SDS011;9108;53.204;10.424;2023-07-29T12:02:44;12.77;;;8.70;;
17965;SDS011;9108;53.204;10.424;2023-07-29T12:05:13;10.52;;;8.40;;
17965;SDS011;9108;53.204;10.424;2023-07-29T12:07:43;10.77;;;8.40;;
17965;SDS011;9108;53.204;10.424;2023-07-29T12:10:12;9.55;;;7.63;;
17965;SDS011;9108;53.204;10.424;2023-07-29T12:12:46;10.90;;;7.55;;
17965;SDS011;9108;53.204;10.424;2023-07-29T12:15:13;11.20;;;7.68;;
17965;SDS011;9108;53.204;10.424;2023-07-29T12:17:57;8.93;;;7.07;;
17965;SDS011;9108;53.204;10.424;2023-07-29T12:20:24;9.38;;;7.20;;
17965;SDS011;9108;53.204;10.424;2023-07-29T12:22:58;11.63;;;8.43;;
17965;SDS011;9108;53.204;10.424;2023-07-29T12:25:34;9.65;;;6.90;;
17965;SDS011;9108;53.204;10.424;2023-07-29T12:28:03;8.88;;;6.13;;
17965;SDS011;9108;53.204;10.424;2023-07-29T12:30:30;7.72;;;4.97;;
17965;SDS011;9108;53.204;10.424;2023-07-29T12:32:59;6.97;;;5.38;;
17965;SDS011;9108;53.204;10.424;2023-07-29T12:35:33;5.75;;;4.80;;
17965;SDS011;9108;53.204;10.424;2023-07-29T12:38:01;6.25;;;4.32;;
17965;SDS011;9108;53.204;10.424;2023-07-29T12:40:30;7.30;;;4.55;;
17965;SDS011;9108;53.204;10.424;2023-07-29T12:42:57;6.07;;;4.72;;
17965;SDS011;9108;53.204;10.424;2023-07-29T12:45:24;5.20;;;3.77;;
17965;SDS011;9108;53.204;10.424;2023-07-29T12:47:53;6.07;;;3.75;;
17965;SDS011;9108;53.204;10.424;2023-07-29T12:50:22;5.20;;;3.65;;
17965;SDS011;9108;53.204;10.424;2023-07-29T12:52:49;4.18;;;3.45;;
17965;SDS011;9108;53.204;10.424;2023-07-29T12:55:16;5.63;;;3.20;;
17965;SDS011;9108;53.204;10.424;2023-07-29T12:57:43;4.83;;;3.17;;
17965;SDS011;9108;53.204;10.424;2023-07-29T13:00:11;7.35;;;3.15;;
17965;SDS011;9108;53.204;10.424;2023-07-29T13:02:39;6.93;;;3.38;;
17965;SDS011;9108;53.204;10.424;2023-07-29T13:05:09;3.97;;;3.10;;
17965;SDS011;9108;53.204;10.424;2023-07-29T13:07:38;5.72;;;3.35;;
17965;SDS011;9108;53.204;10.424;2023-07-29T13:10:06;6.05;;;3.78;;
17965;SDS011;9108;53.204;10.424;2023-07-29T13:12:33;5.53;;;3.40;;
17965;SDS011;9108;53.204;10.424;2023-07-29T13:15:03;7.28;;;3.78;;
17965;SDS011;9108;53.204;10.424;2023-07-29T13:17:30;5.50;;;3.00;;
17965;SDS011;9108;53.204;10.424;2023-07-29T13:19:58;4.32;;;2.92;;
17965;SDS011;9108;53.204;10.424;2023-07-29T13:22:25;5.47;;;2.77;;
17965;SDS011;9108;53.204;10.424;2023-07-29T13:24:53;5.47;;;2.88;;
17965;SDS011;9108;53.204;10.424;2023-07-29T13:27:20;4.75;;;2.60;;
17965;SDS011;9108;53.204;10.424;2023-07-29T13:29:51;4.50;;;2.60;;
17965;SDS011;9108;53.204;10.424;2023-07-29T13:32:22;6.10;;;2.60;;
17965;SDS011;9108;53.204;10.424;2023-07-29T13:34:51;3.67;;;2.60;;
17965;SDS011;9108;53.204;10.424;2023-07-29T13:37:18;3.00;;;2.40;;
17965;SDS011;9108;53.204;10.424;2023-07-29T13:39:45;3.97;;;2.40;;
17965;SDS011;9108;53.204;10.424;2023-07-29T13:42:14;3.33;;;2.25;;
17965;SDS011;9108;53.204;10.424;2023-07-29T13:44:43;5.43;;;2.43;;
17965;SDS011;9108;53.204;10.424;2023-07-29T13:47:11;5.47;;;2.50;;
17965;SDS011;9108;53.204;10.424;2023-07-29T13:49:40;4.25;;;2.13;;
17965;SDS011;9108;53.204;10.424;2023-07-29T13:52:12;5.38;;;2.10;;
17965;SDS011;9108;53.204;10.424;2023-07-29T13:54:39;2.95;;;2.20;;
17965;SDS011;9108;53.204;10.424;2023-07-29T13:57:06;3.67;;;2.30;;
17965;SDS011;9108;53.204;10.424;2023-07-29T13:59:36;3.42;;;2.03;;
17965;SDS011;9108;53.204;10.424;2023-07-29T14:02:04;3.00;;;2.10;;
17965;SDS011;9108;53.204;10.424;2023-07-29T14:04:31;3.63;;;1.95;;
17965;SDS011;9108;53.204;10.424;2023-07-29T14:06:58;2.88;;;1.75;;
17965;SDS011;9108;53.204;10.424;2023-07-29T14:09:27;4.27;;;1.90;;
17965;SDS011;9108;53.204;10.424;2023-07-29T14:11:54;3.53;;;2.00;;
17965;SDS011;9108;53.204;10.424;2023-07-29T14:14:21;4.05;;;1.85;;
17965;SDS011;9108;53.204;10.424;2023-07-29T14:16:50;3.40;;;1.80;;
17965;SDS011;9108;53.204;10.424;2023-07-29T14:19:17;3.25;;;1.67;;
17965;SDS011;9108;53.204;10.424;2023-07-29T14:21:47;3.67;;;1.80;;
17965;SDS011;9108;53.204;10.424;2023-07-29T14:24:14;2.83;;;1.73;;
17965;SDS011;9108;53.204;10.424;2023-07-29T14:26:42;2.85;;;1.67;;
17965;SDS011;9108;53.204;10.424;2023-07-29T14:29:12;2.70;;;1.70;;
17965;SDS011;9108;53.204;10.424;2023-07-29T14:31:39;3.47;;;1.75;;
17965;SDS011;9108;53.204;10.424;2023-07-29T14:34:10;4.63;;;1.60;;
17965;SDS011;9108;53.204;10.424;2023-07-29T14:36:41;6.40;;;1.70;;
17965;SDS011;9108;53.204;10.424;2023-07-29T14:39:08;4.67;;;1.83;;
17965;SDS011;9108;53.204;10.424;2023-07-29T14:41:35;3.50;;;2.00;;
17965;SDS011;9108;53.204;10.424;2023-07-29T14:44:03;3.42;;;2.08;;
17965;SDS011;9108;53.204;10.424;2023-07-29T14:46:30;2.20;;;1.63;;
17965;SDS011;9108;53.204;10.424;2023-07-29T14:49:03;4.25;;;1.50;;